»·PEaware :: AAL1617 KLAX-KLAS

AAL1617 :: KLAX-KLAS

FLIGHT INFORMATION

Flight Status: Arrived
Operator:
American Airlines
More flights by this operator :: More flights under this callsign
Pilot: Ben F. (2808)
Aircraft: MCDONNELL-DOUGLAS MD-82
(MD82)
More flights by this aircraft type
Origin: KLAX Los Angeles Intl
United States
Destination: KLAS McCarran Intl
United States
More flights between these airports :: More routes between these airports
Route: ORCKA2 MISEN KEPEC6
File this flight plan on PilotEdge
Remarks:
Altitude:
(Current/Filed)
27,000ft
Speed:
(Current/Filed)
472kts
Departed: 04-May-18 09:14 AM
Arrived: 04-May-18 10:01 AM
Distance/Time
Traveled:
205nm/0:47
Distance/Time
To Go:
Arrived

Flight Plot

Page will automatically refresh every two minutes.

Flight plan parsing failed; only flown route is shown


Map Options




Map Legend


Flown Route
Filed Route
Departure Airport
Arrival Airport
Navaid (VOR, NDB)
Fix

Horizontal Profiles

Position Reports

Time Latitude Longitude Heading Altitude Ground
Speed
04-May-18 08:49 33.941029 -118.405114 82 135ft 0kts
04-May-18 08:50 33.941029 -118.405114 82 135ft 0kts
04-May-18 08:51 33.941029 -118.405114 82 135ft 0kts
04-May-18 08:52 33.941029 -118.405114 82 135ft 0kts
04-May-18 08:53 33.941029 -118.405114 82 135ft 0kts
04-May-18 08:54 33.941029 -118.405114 82 135ft 0kts
04-May-18 08:55 33.941029 -118.405114 82 135ft 0kts
04-May-18 08:56 33.941029 -118.405114 82 135ft 0kts
04-May-18 08:57 33.941029 -118.405114 82 135ft 0kts
04-May-18 08:58 33.941029 -118.405114 82 135ft 0kts
04-May-18 08:59 33.940983 -118.405564 82 135ft 2kts
04-May-18 09:00 33.940934 -118.406047 82 135ft 0kts
04-May-18 09:01 33.940934 -118.406044 82 135ft 0kts
04-May-18 09:02 33.940607 -118.405725 158 135ft 2kts
04-May-18 09:03 33.940150 -118.405620 171 135ft 1kts
04-May-18 09:04 33.939238 -118.403405 82 135ft 15kts
04-May-18 09:05 33.939764 -118.398336 82 135ft 19kts
04-May-18 09:06 33.939419 -118.393756 81 135ft 18kts
04-May-18 09:08 33.939999 -118.388062 82 135ft 17kts
04-May-18 09:09 33.940396 -118.383870 96 135ft 8kts
04-May-18 09:10 33.938490 -118.383182 173 135ft 0kts
04-May-18 09:11 33.938488 -118.383182 173 135ft 0kts
04-May-18 09:12 33.938460 -118.383178 173 135ft 3kts
04-May-18 09:13 33.937231 -118.384105 263 135ft 0kts
04-May-18 09:14 33.933845 -118.417071 262 622ft 170kts
04-May-18 09:15 33.925303 -118.477185 251 2997ft 235kts
04-May-18 09:16 33.898946 -118.560146 248 5746ft 270kts
04-May-18 09:17 33.844767 -118.613037 168 8284ft 282kts
04-May-18 09:18 33.812286 -118.539474 68 10416ft 301kts
04-May-18 09:19 33.876834 -118.467925 35 12405ft 328kts
04-May-18 09:20 33.955294 -118.403831 39 14616ft 354kts
04-May-18 09:21 34.012045 -118.304219 59 16752ft 369kts
04-May-18 09:22 34.066748 -118.197417 55 18729ft 380kts
04-May-18 09:23 34.127055 -118.089788 53 20503ft 391kts
04-May-18 09:24 34.189301 -117.979716 53 22058ft 402kts
04-May-18 09:25 34.252918 -117.866612 53 23491ft 412kts
04-May-18 09:26 34.318276 -117.750676 53 24808ft 420kts
04-May-18 09:27 34.385286 -117.633308 52 25946ft 429kts
04-May-18 09:28 34.455553 -117.515605 51 27031ft 435kts
04-May-18 09:29 34.527045 -117.395994 51 27353ft 436kts
04-May-18 09:30 34.598298 -117.276680 51 27355ft 438kts
04-May-18 09:31 34.669212 -117.156501 51 27361ft 436kts
04-May-18 09:32 34.739749 -117.036604 51 27353ft 436kts
04-May-18 09:33 34.810515 -116.916292 51 27332ft 436kts
04-May-18 09:34 34.880643 -116.795957 52 27319ft 436kts
04-May-18 09:35 34.950366 -116.675260 53 27321ft 436kts
04-May-18 09:36 35.018671 -116.552690 52 27329ft 436kts
04-May-18 09:37 35.086588 -116.431768 53 25029ft 420kts
04-May-18 09:38 35.159378 -116.326121 42 24248ft 405kts
04-May-18 09:39 35.238257 -116.231500 42 22255ft 389kts
04-May-18 09:40 35.312894 -116.139277 43 20052ft 373kts
04-May-18 09:41 35.384994 -116.048609 43 18264ft 359kts
04-May-18 09:42 35.453222 -115.962089 44 16920ft 351kts
04-May-18 09:43 35.519588 -115.876723 45 15572ft 347kts
04-May-18 09:44 35.585290 -115.793578 45 14169ft 321kts
04-May-18 09:45 35.643265 -115.720617 45 13064ft 289kts
04-May-18 09:46 35.699446 -115.649213 46 13003ft 290kts
04-May-18 09:47 35.755146 -115.577604 47 13004ft 289kts
04-May-18 09:48 35.804803 -115.499690 53 13010ft 288kts
04-May-18 09:49 35.852826 -115.419696 53 12133ft 286kts
04-May-18 09:50 35.898658 -115.343917 53 10126ft 268kts
04-May-18 09:51 35.941964 -115.271267 53 9036ft 260kts
04-May-18 09:52 35.975389 -115.193609 85 8705ft 264kts
04-May-18 09:53 35.973116 -115.105218 92 7306ft 253kts
04-May-18 09:54 35.969169 -115.022511 92 7014ft 233kts
04-May-18 09:55 35.967786 -114.942464 72 6463ft 239kts
04-May-18 09:56 36.023433 -114.912753 354 5190ft 233kts
04-May-18 09:57 36.070761 -114.947275 280 5012ft 200kts
04-May-18 09:58 36.074070 -115.014886 268 3862ft 188kts
04-May-18 09:59 36.073746 -115.072710 269 3039ft 156kts
04-May-18 10:00 36.073645 -115.126567 269 2223ft 157kts
04-May-18 10:01 36.074683 -115.150486 304 2190ft 20kts
04-May-18 10:02 36.077472 -115.152533 337 2190ft 5kts
04-May-18 10:03 36.078663 -115.149333 94 2190ft 13kts
04-May-18 10:04 36.078371 -115.145052 94 2190ft 11kts
04-May-18 10:05 36.079148 -115.141521 1 2190ft 8kts
04-May-18 10:06 36.080805 -115.140995 112 2190ft 5kts

Navigation Log

Ident Type
Flight plan parsing failed, navigation log unavailable